Time;durP1;ratioP1;P1;durP2;ratioP2;P2;SDS_P1;SDS_P2;PMS_P1;PMS_P2;Temp;Humidity;BMP_temperature;BMP_pressure;BME280_temperature;BME280_humidity;BME280_pressure;Samples;Min_cycle;Max_cycle;Signal;HPM_P1;HPM_P2
2024/02/18 00:00:50;;;;;;;0.10;0.10;;;;;;;;;;5023825;28;20053;-90
2024/02/18 00:03:19;;;;;;;0.10;0.10;;;;;;;;;;5029376;28;20049;-89
2024/02/18 00:05:51;;;;;;;0.50;0.50;;;;;;;;;;5033473;28;20058;-90
2024/02/18 00:08:34;;;;;;;0.10;0.10;;;;;;;;;;5029264;28;20050;-89
2024/02/18 00:17:58;;;;;;;1.35;0.75;;;;;;;;;;5022641;28;20129;-89
2024/02/18 00:20:39;;;;;;;0.10;0.10;;;;;;;;;;5019503;28;20060;-90
2024/02/18 00:23:13;;;;;;;1.95;0.55;;;;;;;;;;5021011;28;20050;-88
2024/02/18 00:25:55;;;;;;;0.15;0.15;;;;;;;;;;5004666;28;20077;-90
2024/02/18 00:28:23;;;;;;;0.45;0.35;;;;;;;;;;5020676;28;20054;-90
2024/02/18 00:30:53;;;;;;;0.10;0.10;;;;;;;;;;5019921;28;20049;-88
2024/02/18 00:33:26;;;;;;;0.20;0.20;;;;;;;;;;5021420;28;20061;-89
2024/02/18 00:35:55;;;;;;;0.10;0.10;;;;;;;;;;5022207;28;20061;-89
2024/02/18 00:38:25;;;;;;;0.52;0.52;;;;;;;;;;5005225;28;20053;-89
2024/02/18 00:40:54;;;;;;;0.20;0.20;;;;;;;;;;5022740;28;20057;-90
2024/02/18 00:43:25;;;;;;;0.20;0.15;;;;;;;;;;5022786;28;20104;-90
2024/02/18 00:46:06;;;;;;;0.10;0.10;;;;;;;;;;5006997;28;20073;-89
2024/02/18 00:48:54;;;;;;;0.10;0.10;;;;;;;;;;5021989;28;20130;-89
2024/02/18 00:51:33;;;;;;;1.65;0.40;;;;;;;;;;5023010;28;20053;-88
2024/02/18 00:54:04;;;;;;;0.90;0.90;;;;;;;;;;5021062;28;20080;-89
2024/02/18 00:56:33;;;;;;;0.10;0.10;;;;;;;;;;5021924;28;20072;-90
2024/02/18 00:59:03;;;;;;;0.10;0.10;;;;;;;;;;5022093;28;20145;-89
2024/02/18 01:01:37;;;;;;;0.40;0.40;;;;;;;;;;5021524;28;20068;-90
2024/02/18 01:04:10;;;;;;;0.10;0.10;;;;;;;;;;5021650;28;20450;-89
2024/02/18 01:06:43;;;;;;;0.10;0.10;;;;;;;;;;5023348;28;20068;-89
2024/02/18 01:09:13;;;;;;;0.10;0.10;;;;;;;;;;5025646;28;20058;-89
2024/02/18 01:11:41;;;;;;;0.10;0.10;;;;;;;;;;5031905;28;20207;-89
2024/02/18 01:14:16;;;;;;;0.55;0.55;;;;;;;;;;5026558;28;20077;-89
2024/02/18 01:16:58;;;;;;;0.00;0.00;;;;;;;;;;5024903;28;20123;-90
2024/02/18 01:19:41;;;;;;;0.20;0.20;;;;;;;;;;5024313;28;20512;-88
2024/02/18 01:22:12;;;;;;;0.10;0.10;;;;;;;;;;5022139;28;20086;-90
2024/02/18 01:24:41;;;;;;;0.10;0.10;;;;;;;;;;5004154;28;20076;-89
2024/02/18 01:27:14;;;;;;;0.40;0.40;;;;;;;;;;5021633;28;20062;-90
2024/02/18 01:29:45;;;;;;;0.20;0.20;;;;;;;;;;5022599;28;20058;-90
2024/02/18 01:32:13;;;;;;;0.20;0.20;;;;;;;;;;5022465;28;20064;-89
2024/02/18 01:34:55;;;;;;;0.00;0.00;;;;;;;;;;5020467;28;20054;-89
2024/02/18 01:37:25;;;;;;;0.28;0.28;;;;;;;;;;5030182;28;20042;-89
2024/02/18 01:42:42;;;;;;;0.10;0.10;;;;;;;;;;5145874;23;20057;-90
2024/02/18 01:45:23;;;;;;;0.10;0.10;;;;;;;;;;5023811;28;20481;-90
2024/02/18 01:48:05;;;;;;;4.03;1.88;;;;;;;;;;5024523;28;20057;-90
2024/02/18 01:50:33;;;;;;;0.40;0.40;;;;;;;;;;5027447;28;20053;-89
2024/02/18 01:53:05;;;;;;;0.80;0.80;;;;;;;;;;5036048;28;20609;-89
2024/02/18 01:55:34;;;;;;;0.10;0.10;;;;;;;;;;5020135;28;20054;-90
2024/02/18 01:58:05;;;;;;;0.47;0.40;;;;;;;;;;5028370;28;20062;-90
2024/02/18 02:00:39;;;;;;;0.10;0.10;;;;;;;;;;5011313;28;20068;-90
2024/02/18 02:03:19;;;;;;;0.90;0.90;;;;;;;;;;5025058;28;20112;-90
2024/02/18 02:06:02;;;;;;;1.85;1.75;;;;;;;;;;5024008;28;20053;-89
2024/02/18 02:08:43;;;;;;;0.20;0.20;;;;;;;;;;5022126;28;20069;-89
2024/02/18 02:11:13;;;;;;;1.45;0.85;;;;;;;;;;5024327;28;20054;-89
2024/02/18 02:13:45;;;;;;;0.10;0.10;;;;;;;;;;5024202;28;20438;-89
2024/02/18 02:16:15;;;;;;;0.10;0.10;;;;;;;;;;5023957;28;20109;-89
2024/02/18 02:18:43;;;;;;;0.10;0.10;;;;;;;;;;5025851;28;20057;-89
2024/02/18 02:21:16;;;;;;;1.05;1.00;;;;;;;;;;5024697;28;20065;-90
2024/02/18 02:23:46;;;;;;;0.35;0.35;;;;;;;;;;5007519;28;20060;-89
2024/02/18 02:30:03;;;;;;;0.85;0.85;;;;;;;;;;5026609;28;20465;-90
2024/02/18 02:32:42;;;;;;;0.00;0.00;;;;;;;;;;5016840;28;20049;-89
2024/02/18 02:35:11;;;;;;;0.00;0.00;;;;;;;;;;5025267;28;20112;-89
2024/02/18 02:37:43;;;;;;;0.00;0.00;;;;;;;;;;5024777;28;20078;-88
2024/02/18 02:40:16;;;;;;;1.60;1.50;;;;;;;;;;5023567;28;20054;-90
2024/02/18 02:42:53;;;;;;;0.00;0.00;;;;;;;;;;5023612;28;20328;-89
2024/02/18 02:45:22;;;;;;;0.30;0.30;;;;;;;;;;5023438;28;20120;-89
2024/02/18 02:48:03;;;;;;;0.80;0.65;;;;;;;;;;5018558;28;20046;-89
2024/02/18 02:50:35;;;;;;;0.10;0.10;;;;;;;;;;5008706;28;20377;-89
2024/02/18 02:53:05;;;;;;;1.08;0.57;;;;;;;;;;5022754;28;20088;-89
2024/02/18 02:55:36;;;;;;;0.32;0.30;;;;;;;;;;5025833;28;20054;-90
2024/02/18 02:58:09;;;;;;;0.40;0.40;;;;;;;;;;5022877;28;20124;-89
2024/02/18 03:00:50;;;;;;;0.22;0.22;;;;;;;;;;5022209;28;20073;-89
2024/02/18 03:03:22;;;;;;;0.10;0.10;;;;;;;;;;5023531;28;20066;-90
2024/02/18 03:05:56;;;;;;;1.42;1.33;;;;;;;;;;5025060;28;20105;-89
2024/02/18 03:08:26;;;;;;;0.05;0.05;;;;;;;;;;5023906;28;20054;-89
2024/02/18 03:10:56;;;;;;;2.17;1.55;;;;;;;;;;5024897;28;20175;-89
2024/02/18 03:13:24;;;;;;;0.32;0.32;;;;;;;;;;5024499;28;20456;-88
2024/02/18 03:16:15;;;;;;;0.98;0.98;;;;;;;;;;5060291;23;20054;-88
2024/02/18 03:18:45;;;;;;;0.20;0.20;;;;;;;;;;5024801;28;20058;-89
2024/02/18 03:21:24;;;;;;;0.38;0.38;;;;;;;;;;5025679;28;20081;-89
2024/02/18 03:23:53;;;;;;;0.10;0.10;;;;;;;;;;5024127;28;20054;-90
2024/02/18 03:26:22;;;;;;;0.10;0.10;;;;;;;;;;5025771;28;20378;-90
2024/02/18 03:28:50;;;;;;;0.17;0.17;;;;;;;;;;5025975;28;20118;-87
2024/02/18 03:31:18;;;;;;;1.70;1.58;;;;;;;;;;5029623;28;20062;-88
2024/02/18 03:33:46;;;;;;;0.10;0.10;;;;;;;;;;5026607;28;20073;-90
2024/02/18 03:36:16;;;;;;;0.10;0.10;;;;;;;;;;5025991;28;20300;-90
2024/02/18 03:38:50;;;;;;;0.08;0.08;;;;;;;;;;5027941;28;20068;-89
2024/02/18 03:41:31;;;;;;;1.45;1.38;;;;;;;;;;5027491;28;20069;-89
2024/02/18 03:44:02;;;;;;;1.13;1.10;;;;;;;;;;5033416;28;20054;-89
2024/02/18 03:46:35;;;;;;;6.65;2.22;;;;;;;;;;5031123;28;20058;-89
2024/02/18 03:49:02;;;;;;;0.00;0.00;;;;;;;;;;5027690;28;20065;-89
2024/02/18 03:51:31;;;;;;;0.10;0.10;;;;;;;;;;5031544;28;20050;-89
2024/02/18 03:54:02;;;;;;;0.30;0.30;;;;;;;;;;5032364;28;20049;-90
2024/02/18 03:56:33;;;;;;;0.10;0.10;;;;;;;;;;5032690;28;20248;-90
2024/02/18 03:59:01;;;;;;;4.30;4.00;;;;;;;;;;5035385;28;20056;-90
2024/02/18 04:01:29;;;;;;;2.85;2.47;;;;;;;;;;5035043;28;20087;-90
2024/02/18 04:03:57;;;;;;;0.10;0.10;;;;;;;;;;5035424;28;20042;-90
2024/02/18 04:06:29;;;;;;;0.10;0.10;;;;;;;;;;5035453;28;20041;-90
2024/02/18 04:08:58;;;;;;;0.17;0.17;;;;;;;;;;5035474;28;20049;-92
2024/02/18 04:11:27;;;;;;;1.23;0.35;;;;;;;;;;5036173;28;20235;-90
2024/02/18 04:13:58;;;;;;;2.55;2.15;;;;;;;;;;5032837;28;20078;-90
2024/02/18 04:16:32;;;;;;;0.85;0.85;;;;;;;;;;5023974;28;20058;-89
2024/02/18 04:19:02;;;;;;;0.00;0.00;;;;;;;;;;5021564;28;20268;-89
2024/02/18 04:21:30;;;;;;;0.40;0.40;;;;;;;;;;5020921;28;20089;-90
2024/02/18 04:24:11;;;;;;;0.05;0.05;;;;;;;;;;5020524;28;20418;-88
2024/02/18 04:26:41;;;;;;;6.20;3.13;;;;;;;;;;5022630;28;20077;-89
2024/02/18 04:29:22;;;;;;;2.08;1.73;;;;;;;;;;5022740;28;20131;-88
2024/02/18 04:31:49;;;;;;;0.80;0.80;;;;;;;;;;5024299;28;20160;-89
2024/02/18 04:34:18;;;;;;;0.70;0.70;;;;;;;;;;5024231;28;20054;-89
2024/02/18 04:36:52;;;;;;;2.65;2.55;;;;;;;;;;5026017;28;20068;-88
2024/02/18 04:39:32;;;;;;;0.77;0.77;;;;;;;;;;5027312;28;20161;-88
2024/02/18 04:42:08;;;;;;;0.40;0.15;;;;;;;;;;5024511;28;20054;-90
2024/02/18 04:44:50;;;;;;;0.73;0.73;;;;;;;;;;5024028;28;20445;-88
2024/02/18 04:47:26;;;;;;;0.15;0.15;;;;;;;;;;5023863;28;20046;-89
2024/02/18 04:49:54;;;;;;;0.38;0.15;;;;;;;;;;5027028;28;20058;-89
2024/02/18 04:52:25;;;;;;;0.00;0.00;;;;;;;;;;5034501;28;20077;-90
2024/02/18 04:54:54;;;;;;;0.32;0.32;;;;;;;;;;5034079;28;20113;-89
2024/02/18 04:57:22;;;;;;;0.47;0.20;;;;;;;;;;5031201;28;20179;-89
2024/02/18 04:59:52;;;;;;;0.10;0.10;;;;;;;;;;5030050;28;20069;-89
2024/02/18 05:02:21;;;;;;;0.82;0.43;;;;;;;;;;5030345;28;20061;-89
2024/02/18 05:04:55;;;;;;;3.35;3.15;;;;;;;;;;5030974;28;20068;-89
2024/02/18 05:07:24;;;;;;;0.52;0.52;;;;;;;;;;5032318;28;20061;-90
2024/02/18 05:09:54;;;;;;;0.57;0.57;;;;;;;;;;5032082;28;20436;-90
2024/02/18 05:12:24;;;;;;;0.45;0.28;;;;;;;;;;5034235;28;20062;-91
2024/02/18 05:14:53;;;;;;;0.50;0.50;;;;;;;;;;5033724;28;20062;-90
2024/02/18 05:17:25;;;;;;;0.00;0.00;;;;;;;;;;5036119;28;20049;-91
2024/02/18 05:19:54;;;;;;;1.25;0.80;;;;;;;;;;5031753;28;20038;-91
2024/02/18 05:22:24;;;;;;;0.00;0.00;;;;;;;;;;5031423;28;20297;-91
2024/02/18 05:24:51;;;;;;;0.85;0.40;;;;;;;;;;5034906;28;20064;-91
2024/02/18 05:27:20;;;;;;;0.22;0.22;;;;;;;;;;5035364;28;20054;-91
2024/02/18 05:29:53;;;;;;;0.00;0.00;;;;;;;;;;5035124;28;20065;-91
2024/02/18 05:32:22;;;;;;;1.40;1.30;;;;;;;;;;5034269;28;20058;-91
2024/02/18 05:34:50;;;;;;;0.90;0.90;;;;;;;;;;5036130;28;20061;-91
2024/02/18 05:37:19;;;;;;;0.00;0.00;;;;;;;;;;5035084;28;20042;-91
2024/02/18 05:39:48;;;;;;;0.10;0.10;;;;;;;;;;5034597;28;20053;-91
2024/02/18 05:42:20;;;;;;;1.95;1.85;;;;;;;;;;5033902;28;20058;-92
2024/02/18 05:44:51;;;;;;;6.97;6.32;;;;;;;;;;5034546;28;20049;-91
2024/02/18 05:47:19;;;;;;;0.00;0.00;;;;;;;;;;5034326;28;20130;-91
2024/02/18 05:49:47;;;;;;;0.10;0.10;;;;;;;;;;5034303;28;20061;-91
2024/02/18 05:52:18;;;;;;;0.20;0.20;;;;;;;;;;5034717;28;20185;-91
2024/02/18 05:54:46;;;;;;;0.75;0.75;;;;;;;;;;5034055;28;20081;-91
2024/02/18 05:57:14;;;;;;;0.00;0.00;;;;;;;;;;5033255;28;20065;-91
2024/02/18 05:59:46;;;;;;;3.03;1.55;;;;;;;;;;5033146;28;20057;-91
2024/02/18 06:02:16;;;;;;;1.20;1.20;;;;;;;;;;5032547;28;20065;-91
2024/02/18 06:04:52;;;;;;;0.98;0.98;;;;;;;;;;5027962;28;20073;-91
2024/02/18 06:07:21;;;;;;;0.47;0.47;;;;;;;;;;5029817;28;20104;-91
2024/02/18 06:09:52;;;;;;;0.88;0.55;;;;;;;;;;5033407;28;20049;-90
2024/02/18 06:12:19;;;;;;;3.00;2.28;;;;;;;;;;5033137;28;20153;-91
2024/02/18 06:14:50;;;;;;;0.00;0.00;;;;;;;;;;5035661;28;20066;-90
2024/02/18 06:17:22;;;;;;;6.30;2.28;;;;;;;;;;5035903;28;20065;-91
2024/02/18 06:19:51;;;;;;;0.20;0.20;;;;;;;;;;5032703;28;20080;-91
2024/02/18 06:22:19;;;;;;;0.10;0.10;;;;;;;;;;5035466;28;20042;-91
2024/02/18 06:24:48;;;;;;;1.20;1.10;;;;;;;;;;5037523;28;20041;-90
2024/02/18 06:27:20;;;;;;;0.93;0.65;;;;;;;;;;5034698;28;20054;-91
2024/02/18 06:29:49;;;;;;;0.45;0.45;;;;;;;;;;5033216;28;20057;-91
2024/02/18 06:32:42;;;;;;;1.85;1.08;;;;;;;;;;5032165;28;20057;-91
2024/02/18 06:35:20;;;;;;;8.27;3.70;;;;;;;;;;5033997;28;20054;-91
2024/02/18 06:37:51;;;;;;;27.55;12.35;;;;;;;;;;5033611;28;20258;-90
2024/02/18 06:40:23;;;;;;;38.97;16.92;;;;;;;;;;5035259;28;20050;-91
2024/02/18 06:42:51;;;;;;;43.78;17.67;;;;;;;;;;5031572;28;20050;-91
2024/02/18 06:45:20;;;;;;;38.72;17.10;;;;;;;;;;5031359;28;20073;-90
2024/02/18 06:47:49;;;;;;;38.22;16.42;;;;;;;;;;5032345;28;20054;-91
2024/02/18 06:50:18;;;;;;;39.65;17.27;;;;;;;;;;5032259;28;20058;-91
2024/02/18 06:52:45;;;;;;;40.30;16.27;;;;;;;;;;5030852;28;20057;-91
2024/02/18 06:55:16;;;;;;;37.42;14.15;;;;;;;;;;5025529;28;20058;-91
2024/02/18 06:57:48;;;;;;;29.00;13.35;;;;;;;;;;5025966;28;20206;-90
2024/02/18 07:00:22;;;;;;;33.80;14.82;;;;;;;;;;5023857;28;20089;-91
2024/02/18 07:02:53;;;;;;;23.33;11.93;;;;;;;;;;5023330;28;20061;-90
2024/02/18 07:05:25;;;;;;;35.88;12.50;;;;;;;;;;5024646;28;20108;-91
2024/02/18 07:08:06;;;;;;;31.63;11.65;;;;;;;;;;5025328;28;20061;-91
2024/02/18 07:10:39;;;;;;;28.10;10.73;;;;;;;;;;5029025;28;20041;-92
2024/02/18 07:13:11;;;;;;;27.35;10.93;;;;;;;;;;5017682;28;20077;-92
2024/02/18 07:15:41;;;;;;;28.85;10.18;;;;;;;;;;5034008;28;20042;-91
2024/02/18 07:18:15;;;;;;;21.17;9.57;;;;;;;;;;5035972;28;20037;-91
2024/02/18 07:20:57;;;;;;;24.65;9.73;;;;;;;;;;5035793;28;20075;-91
2024/02/18 07:23:32;;;;;;;24.50;8.95;;;;;;;;;;5035959;28;20057;-90
2024/02/18 07:26:02;;;;;;;24.42;10.10;;;;;;;;;;5036765;28;20045;-91
2024/02/18 07:28:45;;;;;;;18.02;8.13;;;;;;;;;;5037321;28;20105;-91
2024/02/18 07:31:19;;;;;;;20.30;9.30;;;;;;;;;;5024265;28;20316;-91
2024/02/18 07:33:49;;;;;;;;;;;;;;;;;;5026490;28;20062;-91
2024/02/18 07:36:18;;;;;;;26.00;8.65;;;;;;;;;;5007742;28;19928;-90
2024/02/18 07:38:52;;;;;;;24.50;9.88;;;;;;;;;;5022332;28;20144;-92
2024/02/18 07:41:25;;;;;;;20.38;8.98;;;;;;;;;;5022408;28;20058;-91
2024/02/18 07:43:56;;;;;;;20.95;8.45;;;;;;;;;;5024472;28;20081;-91
2024/02/18 07:46:23;;;;;;;21.05;9.70;;;;;;;;;;5029769;28;20053;-93
2024/02/18 07:48:56;;;;;;;23.65;8.43;;;;;;;;;;5031320;28;20121;-92
2024/02/18 07:51:28;;;;;;;26.55;9.98;;;;;;;;;;5034020;28;20054;-91
2024/02/18 07:53:56;;;;;;;22.27;9.55;;;;;;;;;;5034913;28;20118;-90
2024/02/18 07:56:26;;;;;;;13.35;6.72;;;;;;;;;;5019780;28;20046;-92
2024/02/18 07:58:55;;;;;;;19.55;8.02;;;;;;;;;;5034432;28;20034;-92
2024/02/18 08:01:27;;;;;;;25.55;9.05;;;;;;;;;;5019159;28;20058;-92
2024/02/18 08:04:15;;;;;;;23.38;9.25;;;;;;;;;;5034575;28;20118;-92
2024/02/18 08:06:44;;;;;;;18.65;8.57;;;;;;;;;;5035872;28;20038;-91
2024/02/18 08:09:15;;;;;;;21.17;9.13;;;;;;;;;;5022822;28;20050;-92
2024/02/18 08:11:48;;;;;;;23.83;10.05;;;;;;;;;;5023056;28;20065;-92
2024/02/18 08:14:20;;;;;;;25.67;9.25;;;;;;;;;;5023917;28;20054;-91
2024/02/18 08:16:52;;;;;;;17.95;7.72;;;;;;;;;;5021211;28;20054;-91
2024/02/18 08:19:23;;;;;;;14.98;7.38;;;;;;;;;;5020737;28;20061;-92
2024/02/18 08:21:52;;;;;;;3.08;1.15;;;;;;;;;;5018438;28;20061;-91
2024/02/18 08:24:25;;;;;;;20.23;9.15;;;;;;;;;;5019223;28;20147;-92
2024/02/18 08:26:55;;;;;;;22.08;9.23;;;;;;;;;;4998213;28;20061;-92
2024/02/18 08:29:32;;;;;;;25.67;9.77;;;;;;;;;;5020403;28;20046;-92
2024/02/18 08:32:08;;;;;;;19.20;8.98;;;;;;;;;;5021521;28;20501;-91
2024/02/18 08:34:40;;;;;;;22.45;8.40;;;;;;;;;;5022337;28;20053;-91
2024/02/18 08:37:23;;;;;;;22.15;8.80;;;;;;;;;;5021649;28;20128;-92
2024/02/18 08:39:54;;;;;;;22.35;9.93;;;;;;;;;;4972661;28;20065;-91
2024/02/18 08:42:25;;;;;;;20.70;8.30;;;;;;;;;;4977414;28;20102;-92
2024/02/18 08:44:56;;;;;;;23.60;9.40;;;;;;;;;;4972537;28;20105;-91
2024/02/18 08:47:40;;;;;;;19.83;9.48;;;;;;;;;;4982403;28;20063;-93
2024/02/18 08:50:23;;;;;;;19.48;9.05;;;;;;;;;;4980383;28;20054;-93
2024/02/18 08:52:55;;;;;;;18.00;8.15;;;;;;;;;;4975315;28;20508;-92
2024/02/18 08:55:51;;;;;;;18.23;8.95;;;;;;;;;;4988500;28;20374;-91
2024/02/18 08:58:31;;;;;;;20.38;9.52;;;;;;;;;;4973915;28;20055;-91
2024/02/18 09:01:42;;;;;;;17.17;8.52;;;;;;;;;;4987403;28;20050;-90
2024/02/18 09:04:42;;;;;;;25.42;8.88;;;;;;;;;;4979720;28;20097;-91
2024/02/18 09:07:26;;;;;;;20.63;9.70;;;;;;;;;;4975275;28;20054;-91
2024/02/18 09:10:15;;;;;;;20.73;8.40;;;;;;;;;;4984985;28;20113;-90
2024/02/18 09:13:01;;;;;;;18.52;8.07;;;;;;;;;;5021005;28;20120;-89
2024/02/18 09:15:32;;;;;;;17.02;8.35;;;;;;;;;;5022378;28;20516;-90
2024/02/18 09:18:05;;;;;;;17.55;8.15;;;;;;;;;;5022019;28;20056;-89
2024/02/18 09:20:45;;;;;;;15.90;8.00;;;;;;;;;;5021389;28;20148;-89
2024/02/18 09:23:59;;;;;;;23.50;8.30;;;;;;;;;;5404784;23;20054;-91
2024/02/18 09:26:47;;;;;;;20.02;9.07;;;;;;;;;;5035951;28;20065;-90
2024/02/18 09:29:29;;;;;;;14.95;7.18;;;;;;;;;;5027042;28;20389;-90
2024/02/18 09:32:01;;;;;;;17.30;8.98;;;;;;;;;;5019852;28;20054;-90
2024/02/18 09:34:43;;;;;;;21.23;7.65;;;;;;;;;;5020855;28;20049;-90
2024/02/18 09:37:15;;;;;;;25.20;8.57;;;;;;;;;;5021396;28;20058;-90
2024/02/18 09:39:47;;;;;;;14.48;7.30;;;;;;;;;;5021376;28;20057;-90
2024/02/18 09:42:14;;;;;;;16.05;7.70;;;;;;;;;;5020220;28;20117;-89
2024/02/18 09:44:46;;;;;;;17.83;7.38;;;;;;;;;;5022300;28;20240;-90
2024/02/18 09:47:18;;;;;;;18.60;6.97;;;;;;;;;;5019801;28;20414;-90
2024/02/18 09:49:47;;;;;;;14.80;7.13;;;;;;;;;;5019265;28;20330;-90
2024/02/18 09:52:24;;;;;;;18.42;8.00;;;;;;;;;;5017196;28;20129;-89
2024/02/18 09:55:07;;;;;;;15.50;6.63;;;;;;;;;;5017761;28;20050;-90
2024/02/18 09:57:38;;;;;;;22.92;7.10;;;;;;;;;;5019082;28;20327;-89
2024/02/18 10:00:11;;;;;;;11.93;6.57;;;;;;;;;;5019801;28;20078;-90
2024/02/18 10:02:41;;;;;;;13.50;7.70;;;;;;;;;;5019922;28;20058;-89
2024/02/18 10:05:14;;;;;;;16.67;7.45;;;;;;;;;;5021606;28;20070;-89
2024/02/18 10:07:45;;;;;;;14.05;7.15;;;;;;;;;;5021400;28;20117;-88
2024/02/18 10:10:31;;;;;;;19.88;7.28;;;;;;;;;;5019400;28;20054;-89
2024/02/18 10:13:04;;;;;;;17.13;6.68;;;;;;;;;;5020656;28;20053;-89
2024/02/18 10:15:48;;;;;;;20.37;7.10;;;;;;;;;;5019781;28;20054;-89
2024/02/18 10:18:29;;;;;;;15.52;6.65;;;;;;;;;;5020587;28;20050;-90
2024/02/18 10:20:57;;;;;;;21.98;6.90;;;;;;;;;;5027178;28;20313;-89
2024/02/18 10:23:26;;;;;;;17.25;6.82;;;;;;;;;;5021587;28;20066;-89
2024/02/18 10:25:59;;;;;;;18.60;7.05;;;;;;;;;;5023240;28;20058;-89
2024/02/18 10:28:29;;;;;;;13.23;6.32;;;;;;;;;;5028938;28;20118;-89
2024/02/18 10:31:00;;;;;;;11.65;6.10;;;;;;;;;;5018437;28;20053;-89
2024/02/18 10:33:42;;;;;;;14.80;5.70;;;;;;;;;;5022892;28;20065;-90
2024/02/18 10:36:16;;;;;;;12.93;4.95;;;;;;;;;;5019797;28;20053;-89
2024/02/18 10:38:52;;;;;;;0.20;0.15;;;;;;;;;;5023469;28;20077;-89
2024/02/18 10:41:30;;;;;;;8.77;4.75;;;;;;;;;;5030334;28;20062;-90
2024/02/18 10:43:59;;;;;;;4.90;2.10;;;;;;;;;;5020846;28;20053;-89
2024/02/18 10:46:31;;;;;;;11.18;5.15;;;;;;;;;;5020552;28;20054;-89
2024/02/18 10:49:08;;;;;;;9.65;4.10;;;;;;;;;;5021648;28;20049;-89
2024/02/18 10:51:56;;;;;;;11.85;5.30;;;;;;;;;;5007823;28;20062;-90
2024/02/18 10:54:50;;;;;;;10.27;4.68;;;;;;;;;;5033947;28;20053;-89
2024/02/18 10:58:00;;;;;;;13.23;4.78;;;;;;;;;;5010171;28;20061;-88
2024/02/18 11:01:01;;;;;;;15.52;4.80;;;;;;;;;;5033327;28;20081;-90
2024/02/18 11:03:52;;;;;;;12.25;3.42;;;;;;;;;;5036243;28;20041;-91
2024/02/18 11:06:49;;;;;;;11.10;4.38;;;;;;;;;;5033802;28;20060;-91
2024/02/18 11:09:33;;;;;;;10.45;4.82;;;;;;;;;;5022917;28;20045;-91
2024/02/18 11:12:05;;;;;;;14.75;4.80;;;;;;;;;;5032426;28;20053;-90
2024/02/18 11:14:51;;;;;;;5.78;3.50;;;;;;;;;;5029192;28;20038;-91
2024/02/18 11:17:32;;;;;;;14.65;5.18;;;;;;;;;;5018705;28;20104;-90
2024/02/18 11:20:09;;;;;;;8.48;4.35;;;;;;;;;;5020434;28;20441;-90
2024/02/18 11:22:49;;;;;;;7.45;3.92;;;;;;;;;;5019921;28;20081;-89
2024/02/18 11:25:34;;;;;;;18.97;4.97;;;;;;;;;;5018230;28;20373;-90
2024/02/18 11:28:11;;;;;;;14.10;4.03;;;;;;;;;;5018930;28;20229;-91
2024/02/18 11:30:47;;;;;;;10.80;4.72;;;;;;;;;;5017825;28;20479;-89
2024/02/18 11:33:25;;;;;;;9.07;3.90;;;;;;;;;;5005665;28;20145;-89
2024/02/18 11:36:10;;;;;;;6.85;3.95;;;;;;;;;;5019445;28;20336;-90
2024/02/18 11:38:57;;;;;;;10.30;4.43;;;;;;;;;;5019775;28;20088;-90
2024/02/18 11:41:30;;;;;;;8.02;4.50;;;;;;;;;;5021912;28;20132;-89
2024/02/18 11:44:12;;;;;;;8.07;4.85;;;;;;;;;;5027152;28;20178;-90
2024/02/18 11:46:55;;;;;;;11.65;4.97;;;;;;;;;;5031191;28;20065;-90
2024/02/18 11:49:30;;;;;;;10.35;4.60;;;;;;;;;;5030484;28;20065;-89
2024/02/18 11:51:58;;;;;;;11.18;4.35;;;;;;;;;;5032303;28;20058;-90
2024/02/18 11:54:36;;;;;;;12.93;4.35;;;;;;;;;;5017497;28;20050;-90
2024/02/18 11:57:13;;;;;;;5.63;3.20;;;;;;;;;;5032752;28;20167;-89
2024/02/18 11:59:45;;;;;;;6.55;3.85;;;;;;;;;;5032133;28;20049;-89
2024/02/18 12:02:20;;;;;;;8.85;3.63;;;;;;;;;;5017079;28;20053;-89
2024/02/18 12:05:01;;;;;;;12.40;3.80;;;;;;;;;;5024232;28;20050;-89
2024/02/18 12:07:34;;;;;;;5.80;2.45;;;;;;;;;;5017348;28;20140;-89
2024/02/18 12:10:16;;;;;;;1.45;0.98;;;;;;;;;;5001761;28;20053;-89
2024/02/18 12:12:48;;;;;;;0.45;0.45;;;;;;;;;;5017875;28;20093;-89
2024/02/18 12:15:30;;;;;;;0.75;0.17;;;;;;;;;;5025667;28;20119;-89
2024/02/18 12:18:10;;;;;;;0.10;0.10;;;;;;;;;;5018354;28;20049;-89
2024/02/18 12:21:06;;;;;;;0.05;0.05;;;;;;;;;;5017482;28;20400;-89
2024/02/18 12:23:40;;;;;;;0.77;0.75;;;;;;;;;;5016239;28;20072;-90
2024/02/18 12:26:12;;;;;;;0.53;0.10;;;;;;;;;;5015711;28;20139;-89
2024/02/18 12:28:53;;;;;;;0.45;0.45;;;;;;;;;;5000874;28;20082;-89
2024/02/18 12:31:21;;;;;;;0.00;0.00;;;;;;;;;;5017885;28;20068;-88
2024/02/18 12:34:01;;;;;;;0.32;0.32;;;;;;;;;;4999264;28;20100;-89
2024/02/18 12:36:42;;;;;;;1.00;0.38;;;;;;;;;;5001364;28;20085;-89
2024/02/18 12:39:12;;;;;;;0.17;0.17;;;;;;;;;;5016119;28;20362;-89
2024/02/18 12:41:50;;;;;;;0.03;0.03;;;;;;;;;;5018858;28;20389;-89
2024/02/18 12:44:18;;;;;;;0.88;0.88;;;;;;;;;;5018504;28;20069;-89
2024/02/18 12:47:01;;;;;;;0.10;0.10;;;;;;;;;;5001229;28;20115;-89
2024/02/18 12:49:30;;;;;;;0.93;0.35;;;;;;;;;;5017212;28;20475;-89
2024/02/18 12:52:04;;;;;;;0.00;0.00;;;;;;;;;;5016655;28;20100;-89
2024/02/18 12:54:44;;;;;;;0.22;0.22;;;;;;;;;;5015426;28;20140;-88
2024/02/18 12:57:31;;;;;;;0.15;0.15;;;;;;;;;;4967649;28;20059;-89
2024/02/18 13:00:07;;;;;;;0.10;0.10;;;;;;;;;;5016421;28;20437;-89
2024/02/18 13:02:53;;;;;;;0.10;0.10;;;;;;;;;;5016662;28;20048;-90
2024/02/18 13:05:34;;;;;;;0.55;0.55;;;;;;;;;;5025304;28;20050;-89
2024/02/18 13:08:07;;;;;;;0.25;0.25;;;;;;;;;;5018043;28;20081;-90
2024/02/18 13:13:46;;;;;;;0.20;0.20;;;;;;;;;;5018220;28;20112;-89
2024/02/18 13:16:18;;;;;;;0.38;0.30;;;;;;;;;;5000396;28;20109;-89
2024/02/18 13:18:54;;;;;;;0.40;0.40;;;;;;;;;;5026841;28;20129;-90
2024/02/18 13:21:30;;;;;;;0.65;0.20;;;;;;;;;;5024021;28;20057;-88
2024/02/18 13:24:14;;;;;;;0.22;0.22;;;;;;;;;;5021411;28;20050;-89
2024/02/18 13:26:49;;;;;;;0.65;0.45;;;;;;;;;;5023023;28;20045;-90
2024/02/18 13:29:18;;;;;;;0.00;0.00;;;;;;;;;;5028023;28;20071;-90
2024/02/18 13:31:49;;;;;;;0.10;0.10;;;;;;;;;;5023856;28;20058;-90
2024/02/18 13:34:31;;;;;;;0.43;0.30;;;;;;;;;;4983566;28;20059;-89
2024/02/18 13:37:05;;;;;;;0.32;0.30;;;;;;;;;;4966852;28;20054;-90
2024/02/18 13:39:34;;;;;;;0.00;0.00;;;;;;;;;;4969942;28;20046;-90
2024/02/18 13:42:06;;;;;;;0.00;0.00;;;;;;;;;;4968460;28;20058;-90
2024/02/18 13:44:34;;;;;;;0.30;0.30;;;;;;;;;;4962747;28;20149;-90
2024/02/18 13:47:20;;;;;;;0.00;0.00;;;;;;;;;;4964802;28;20051;-90
2024/02/18 13:49:52;;;;;;;3.20;0.70;;;;;;;;;;4962564;28;20094;-90
2024/02/18 13:52:21;;;;;;;0.03;0.03;;;;;;;;;;4964777;28;20054;-89
2024/02/18 13:54:51;;;;;;;0.32;0.17;;;;;;;;;;4979802;28;20081;-89
2024/02/18 13:57:22;;;;;;;2.47;0.95;;;;;;;;;;4965812;28;20082;-91
2024/02/18 14:03:12;;;;;;;0.75;0.35;;;;;;;;;;4984394;28;20054;-90
2024/02/18 14:05:53;;;;;;;0.20;0.20;;;;;;;;;;4996525;28;20426;-90
2024/02/18 14:08:31;;;;;;;0.55;0.55;;;;;;;;;;5028057;28;20038;-91
2024/02/18 14:11:00;;;;;;;0.55;0.35;;;;;;;;;;5034813;28;20069;-91
2024/02/18 14:13:36;;;;;;;0.32;0.32;;;;;;;;;;5028213;28;20141;-91
2024/02/18 14:16:05;;;;;;;0.40;0.40;;;;;;;;;;5024250;28;20065;-90
2024/02/18 14:18:41;;;;;;;0.20;0.20;;;;;;;;;;5007939;28;20634;-92
2024/02/18 14:21:29;;;;;;;0.00;0.00;;;;;;;;;;5007272;28;20050;-90
2024/02/18 14:23:58;;;;;;;0.30;0.30;;;;;;;;;;5031078;28;20053;-91
2024/02/18 14:26:28;;;;;;;0.20;0.20;;;;;;;;;;5033007;28;20076;-90
2024/02/18 14:29:00;;;;;;;0.30;0.30;;;;;;;;;;5033855;28;20085;-91
2024/02/18 14:31:28;;;;;;;2.55;0.52;;;;;;;;;;5033159;28;20100;-91
2024/02/18 14:34:04;;;;;;;0.00;0.00;;;;;;;;;;5034106;28;20050;-91
2024/02/18 14:36:38;;;;;;;0.10;0.10;;;;;;;;;;5033026;28;20042;-90
2024/02/18 14:39:11;;;;;;;0.08;0.08;;;;;;;;;;5017888;28;20307;-92
2024/02/18 14:41:59;;;;;;;1.17;0.10;;;;;;;;;;5034134;28;20050;-90
2024/02/18 14:44:32;;;;;;;0.05;0.05;;;;;;;;;;5027440;28;20109;-91
2024/02/18 14:47:01;;;;;;;0.08;0.08;;;;;;;;;;5023734;28;20064;-91
2024/02/18 14:49:33;;;;;;;0.20;0.20;;;;;;;;;;5024938;28;20144;-92
2024/02/18 14:52:15;;;;;;;0.10;0.10;;;;;;;;;;5023531;28;20053;-90
2024/02/18 14:54:47;;;;;;;0.00;0.00;;;;;;;;;;5026941;28;20078;-92
2024/02/18 14:57:15;;;;;;;1.88;1.13;;;;;;;;;;5010576;28;20054;-90
2024/02/18 14:59:45;;;;;;;0.10;0.10;;;;;;;;;;5022018;28;20057;-91
2024/02/18 15:02:12;;;;;;;1.10;0.43;;;;;;;;;;5025719;28;20078;-92
2024/02/18 15:04:42;;;;;;;0.00;0.00;;;;;;;;;;5024804;28;20345;-90
2024/02/18 15:07:15;;;;;;;1.38;1.27;;;;;;;;;;5019704;28;20414;-91
2024/02/18 15:10:01;;;;;;;1.00;0.45;;;;;;;;;;5018351;28;20137;-90
2024/02/18 15:12:36;;;;;;;0.10;0.10;;;;;;;;;;5019035;28;20058;-90
2024/02/18 15:15:05;;;;;;;0.20;0.20;;;;;;;;;;5018261;28;20046;-91
2024/02/18 15:17:35;;;;;;;0.32;0.32;;;;;;;;;;5018506;28;20153;-91
2024/02/18 15:20:16;;;;;;;0.10;0.10;;;;;;;;;;5010136;28;20426;-90
2024/02/18 15:22:46;;;;;;;0.80;0.25;;;;;;;;;;5002564;28;20053;-91
2024/02/18 15:25:27;;;;;;;0.20;0.20;;;;;;;;;;5005394;28;20057;-91
2024/02/18 15:27:59;;;;;;;0.63;0.63;;;;;;;;;;5020709;28;20366;-90
2024/02/18 15:30:27;;;;;;;0.13;0.13;;;;;;;;;;5020082;28;20422;-91
2024/02/18 15:33:08;;;;;;;0.00;0.00;;;;;;;;;;5021057;28;20061;-91
2024/02/18 15:35:53;;;;;;;0.10;0.10;;;;;;;;;;5029560;28;20084;-91
2024/02/18 15:38:35;;;;;;;1.00;0.43;;;;;;;;;;5030062;28;20064;-91
2024/02/18 15:41:16;;;;;;;20.38;1.35;;;;;;;;;;5032207;28;20078;-92